sensor_id;sensor_type;location;lat;lon;timestamp;P1;durP1;ratioP1;P2;durP2;ratioP2
21927;SDS011;11128;51.096;17.190;2023-07-24T00:03:29;7.70;;;3.38;;
21927;SDS011;11128;51.096;17.190;2023-07-24T00:08:31;5.63;;;3.25;;
21927;SDS011;11128;51.096;17.190;2023-07-24T00:13:32;9.13;;;3.67;;
21927;SDS011;11128;51.096;17.190;2023-07-24T00:18:33;6.40;;;2.95;;
21927;SDS011;11128;51.096;17.190;2023-07-24T00:23:34;7.90;;;3.35;;
21927;SDS011;11128;51.096;17.190;2023-07-24T00:28:36;5.68;;;2.80;;
21927;SDS011;11128;51.096;17.190;2023-07-24T00:33:37;7.68;;;2.88;;
21927;SDS011;11128;51.096;17.190;2023-07-24T00:38:38;5.97;;;2.70;;
21927;SDS011;11128;51.096;17.190;2023-07-24T00:43:40;5.28;;;2.10;;
21927;SDS011;11128;51.096;17.190;2023-07-24T00:48:41;3.80;;;1.75;;
21927;SDS011;11128;51.096;17.190;2023-07-24T00:53:43;5.65;;;2.22;;
21927;SDS011;11128;51.096;17.190;2023-07-24T00:58:45;3.45;;;2.17;;
21927;SDS011;11128;51.096;17.190;2023-07-24T01:03:46;4.90;;;2.30;;
21927;SDS011;11128;51.096;17.190;2023-07-24T01:08:47;4.50;;;2.15;;
21927;SDS011;11128;51.096;17.190;2023-07-24T01:13:54;3.53;;;1.98;;
21927;SDS011;11128;51.096;17.190;2023-07-24T01:18:59;5.65;;;1.95;;
21927;SDS011;11128;51.096;17.190;2023-07-24T01:24:09;6.18;;;2.38;;
21927;SDS011;11128;51.096;17.190;2023-07-24T01:29:21;11.90;;;2.80;;
21927;SDS011;11128;51.096;17.190;2023-07-24T01:34:22;4.72;;;2.45;;
21927;SDS011;11128;51.096;17.190;2023-07-24T01:39:23;4.70;;;1.98;;
21927;SDS011;11128;51.096;17.190;2023-07-24T01:44:25;7.68;;;2.20;;
21927;SDS011;11128;51.096;17.190;2023-07-24T01:49:26;7.10;;;2.42;;
21927;SDS011;11128;51.096;17.190;2023-07-24T01:54:28;3.22;;;1.80;;
21927;SDS011;11128;51.096;17.190;2023-07-24T01:59:29;5.90;;;2.47;;
21927;SDS011;11128;51.096;17.190;2023-07-24T02:04:30;5.45;;;2.22;;
21927;SDS011;11128;51.096;17.190;2023-07-24T02:09:32;4.03;;;2.30;;
21927;SDS011;11128;51.096;17.190;2023-07-24T02:14:33;5.25;;;2.22;;
21927;SDS011;11128;51.096;17.190;2023-07-24T02:19:34;3.40;;;1.95;;
21927;SDS011;11128;51.096;17.190;2023-07-24T02:24:36;4.00;;;1.95;;
21927;SDS011;11128;51.096;17.190;2023-07-24T02:29:37;5.50;;;2.08;;
21927;SDS011;11128;51.096;17.190;2023-07-24T02:34:38;8.60;;;2.72;;
21927;SDS011;11128;51.096;17.190;2023-07-24T02:39:40;6.57;;;2.83;;
21927;SDS011;11128;51.096;17.190;2023-07-24T02:44:41;5.35;;;2.47;;
21927;SDS011;11128;51.096;17.190;2023-07-24T02:49:42;6.28;;;2.63;;
21927;SDS011;11128;51.096;17.190;2023-07-24T02:54:43;7.40;;;2.92;;
21927;SDS011;11128;51.096;17.190;2023-07-24T02:59:45;8.50;;;2.83;;
21927;SDS011;11128;51.096;17.190;2023-07-24T03:04:47;4.80;;;2.58;;
21927;SDS011;11128;51.096;17.190;2023-07-24T03:09:50;10.75;;;2.80;;
21927;SDS011;11128;51.096;17.190;2023-07-24T03:14:51;5.25;;;2.30;;
21927;SDS011;11128;51.096;17.190;2023-07-24T03:19:53;5.05;;;2.05;;
21927;SDS011;11128;51.096;17.190;2023-07-24T03:24:55;5.45;;;2.00;;
21927;SDS011;11128;51.096;17.190;2023-07-24T03:29:56;5.55;;;2.60;;
21927;SDS011;11128;51.096;17.190;2023-07-24T03:34:57;6.15;;;2.03;;
21927;SDS011;11128;51.096;17.190;2023-07-24T03:39:59;3.42;;;1.98;;
21927;SDS011;11128;51.096;17.190;2023-07-24T03:45:00;4.18;;;2.10;;
21927;SDS011;11128;51.096;17.190;2023-07-24T03:50:01;5.20;;;2.33;;
21927;SDS011;11128;51.096;17.190;2023-07-24T03:55:03;3.55;;;2.10;;
21927;SDS011;11128;51.096;17.190;2023-07-24T04:00:04;5.63;;;2.88;;
21927;SDS011;11128;51.096;17.190;2023-07-24T04:05:07;6.38;;;2.10;;
21927;SDS011;11128;51.096;17.190;2023-07-24T04:10:08;6.25;;;2.00;;
21927;SDS011;11128;51.096;17.190;2023-07-24T04:15:10;4.32;;;2.40;;
21927;SDS011;11128;51.096;17.190;2023-07-24T04:20:11;3.53;;;2.10;;
21927;SDS011;11128;51.096;17.190;2023-07-24T04:25:12;5.47;;;2.25;;
21927;SDS011;11128;51.096;17.190;2023-07-24T04:30:14;3.90;;;1.95;;
21927;SDS011;11128;51.096;17.190;2023-07-24T04:35:15;2.85;;;1.85;;
21927;SDS011;11128;51.096;17.190;2023-07-24T04:40:17;6.10;;;2.50;;
21927;SDS011;11128;51.096;17.190;2023-07-24T04:45:18;3.45;;;2.20;;
21927;SDS011;11128;51.096;17.190;2023-07-24T04:50:19;4.53;;;2.58;;
21927;SDS011;11128;51.096;17.190;2023-07-24T04:55:21;3.75;;;2.20;;
21927;SDS011;11128;51.096;17.190;2023-07-24T05:00:22;4.53;;;2.28;;
21927;SDS011;11128;51.096;17.190;2023-07-24T05:05:23;5.28;;;2.42;;
21927;SDS011;11128;51.096;17.190;2023-07-24T05:10:25;4.70;;;2.47;;
21927;SDS011;11128;51.096;17.190;2023-07-24T05:15:26;4.68;;;2.20;;
21927;SDS011;11128;51.096;17.190;2023-07-24T05:20:27;5.88;;;2.20;;
21927;SDS011;11128;51.096;17.190;2023-07-24T05:25:28;5.43;;;2.33;;
21927;SDS011;11128;51.096;17.190;2023-07-24T05:30:29;4.43;;;2.38;;
21927;SDS011;11128;51.096;17.190;2023-07-24T05:35:31;3.25;;;2.13;;
21927;SDS011;11128;51.096;17.190;2023-07-24T05:40:32;3.38;;;2.13;;
21927;SDS011;11128;51.096;17.190;2023-07-24T05:45:34;4.80;;;2.22;;
21927;SDS011;11128;51.096;17.190;2023-07-24T05:50:35;4.32;;;2.35;;
21927;SDS011;11128;51.096;17.190;2023-07-24T05:55:36;5.10;;;2.60;;
21927;SDS011;11128;51.096;17.190;2023-07-24T06:00:37;4.18;;;2.25;;
21927;SDS011;11128;51.096;17.190;2023-07-24T06:05:39;5.82;;;2.58;;
21927;SDS011;11128;51.096;17.190;2023-07-24T06:10:40;5.88;;;2.45;;
21927;SDS011;11128;51.096;17.190;2023-07-24T06:15:41;3.33;;;2.15;;
21927;SDS011;11128;51.096;17.190;2023-07-24T06:20:43;3.20;;;2.10;;
21927;SDS011;11128;51.096;17.190;2023-07-24T06:25:44;7.22;;;2.15;;
21927;SDS011;11128;51.096;17.190;2023-07-24T06:30:45;5.03;;;2.55;;
21927;SDS011;11128;51.096;17.190;2023-07-24T06:35:50;4.68;;;2.55;;
21927;SDS011;11128;51.096;17.190;2023-07-24T06:40:51;4.85;;;2.53;;
21927;SDS011;11128;51.096;17.190;2023-07-24T06:45:52;5.65;;;2.45;;
21927;SDS011;11128;51.096;17.190;2023-07-24T06:50:54;5.93;;;2.70;;
21927;SDS011;11128;51.096;17.190;2023-07-24T06:55:55;5.25;;;2.38;;
21927;SDS011;11128;51.096;17.190;2023-07-24T07:00:56;3.55;;;2.15;;
21927;SDS011;11128;51.096;17.190;2023-07-24T07:06:00;5.45;;;2.47;;
21927;SDS011;11128;51.096;17.190;2023-07-24T07:11:03;5.43;;;2.85;;
21927;SDS011;11128;51.096;17.190;2023-07-24T07:16:05;4.72;;;2.70;;
21927;SDS011;11128;51.096;17.190;2023-07-24T07:21:06;3.28;;;2.17;;
21927;SDS011;11128;51.096;17.190;2023-07-24T07:26:07;7.30;;;2.72;;
21927;SDS011;11128;51.096;17.190;2023-07-24T07:31:09;4.00;;;2.63;;
21927;SDS011;11128;51.096;17.190;2023-07-24T07:36:10;4.75;;;2.42;;
21927;SDS011;11128;51.096;17.190;2023-07-24T07:41:12;3.92;;;2.03;;
21927;SDS011;11128;51.096;17.190;2023-07-24T07:46:14;5.38;;;2.90;;
21927;SDS011;11128;51.096;17.190;2023-07-24T07:51:15;4.10;;;2.38;;
21927;SDS011;11128;51.096;17.190;2023-07-24T07:56:16;6.18;;;2.53;;
21927;SDS011;11128;51.096;17.190;2023-07-24T08:01:18;3.88;;;2.30;;
21927;SDS011;11128;51.096;17.190;2023-07-24T08:06:19;5.03;;;2.80;;
21927;SDS011;11128;51.096;17.190;2023-07-24T08:11:21;6.38;;;2.65;;
21927;SDS011;11128;51.096;17.190;2023-07-24T08:16:23;4.53;;;2.55;;
21927;SDS011;11128;51.096;17.190;2023-07-24T08:21:24;5.35;;;2.75;;
21927;SDS011;11128;51.096;17.190;2023-07-24T08:26:25;5.97;;;3.17;;
21927;SDS011;11128;51.096;17.190;2023-07-24T08:31:27;4.90;;;2.67;;
21927;SDS011;11128;51.096;17.190;2023-07-24T08:36:30;5.95;;;3.10;;
21927;SDS011;11128;51.096;17.190;2023-07-24T08:41:31;5.35;;;3.22;;
21927;SDS011;11128;51.096;17.190;2023-07-24T08:46:35;3.38;;;2.55;;
21927;SDS011;11128;51.096;17.190;2023-07-24T08:51:38;6.40;;;2.85;;
21927;SDS011;11128;51.096;17.190;2023-07-24T08:56:41;5.85;;;3.10;;
21927;SDS011;11128;51.096;17.190;2023-07-24T09:01:48;7.22;;;3.15;;
21927;SDS011;11128;51.096;17.190;2023-07-24T09:06:50;6.45;;;3.50;;
21927;SDS011;11128;51.096;17.190;2023-07-24T09:11:53;7.20;;;3.22;;
21927;SDS011;11128;51.096;17.190;2023-07-24T09:17:01;5.50;;;3.35;;
21927;SDS011;11128;51.096;17.190;2023-07-24T09:22:09;6.18;;;3.20;;
21927;SDS011;11128;51.096;17.190;2023-07-24T09:27:15;4.93;;;3.10;;
21927;SDS011;11128;51.096;17.190;2023-07-24T09:32:20;6.35;;;3.58;;
21927;SDS011;11128;51.096;17.190;2023-07-24T09:42:29;4.95;;;2.70;;
21927;SDS011;11128;51.096;17.190;2023-07-24T09:47:35;6.45;;;2.67;;
21927;SDS011;11128;51.096;17.190;2023-07-24T09:52:37;5.72;;;3.08;;
21927;SDS011;11128;51.096;17.190;2023-07-24T09:57:43;6.53;;;2.65;;
21927;SDS011;11128;51.096;17.190;2023-07-24T10:02:46;4.50;;;2.97;;
21927;SDS011;11128;51.096;17.190;2023-07-24T10:07:48;7.43;;;3.90;;
21927;SDS011;11128;51.096;17.190;2023-07-24T10:12:52;5.20;;;3.08;;
21927;SDS011;11128;51.096;17.190;2023-07-24T10:18:00;4.88;;;3.35;;
21927;SDS011;11128;51.096;17.190;2023-07-24T10:23:06;5.95;;;3.13;;
21927;SDS011;11128;51.096;17.190;2023-07-24T10:28:16;7.50;;;2.92;;
21927;SDS011;11128;51.096;17.190;2023-07-24T10:33:20;6.72;;;3.05;;
21927;SDS011;11128;51.096;17.190;2023-07-24T10:38:32;6.30;;;3.40;;
21927;SDS011;11128;51.096;17.190;2023-07-24T10:43:45;6.25;;;3.08;;
21927;SDS011;11128;51.096;17.190;2023-07-24T10:48:51;5.03;;;3.08;;
21927;SDS011;11128;51.096;17.190;2023-07-24T10:53:52;7.07;;;2.80;;
21927;SDS011;11128;51.096;17.190;2023-07-24T10:58:54;5.93;;;3.78;;
21927;SDS011;11128;51.096;17.190;2023-07-24T11:03:56;9.68;;;3.60;;
21927;SDS011;11128;51.096;17.190;2023-07-24T11:08:58;5.18;;;3.08;;
21927;SDS011;11128;51.096;17.190;2023-07-24T11:14:00;7.30;;;4.13;;
21927;SDS011;11128;51.096;17.190;2023-07-24T11:19:03;10.25;;;3.58;;
21927;SDS011;11128;51.096;17.190;2023-07-24T11:24:06;5.82;;;3.10;;
21927;SDS011;11128;51.096;17.190;2023-07-24T11:29:13;5.65;;;2.88;;
21927;SDS011;11128;51.096;17.190;2023-07-24T11:34:14;5.50;;;3.35;;
21927;SDS011;11128;51.096;17.190;2023-07-24T11:39:23;5.13;;;3.25;;
21927;SDS011;11128;51.096;17.190;2023-07-24T11:44:27;6.53;;;3.33;;
21927;SDS011;11128;51.096;17.190;2023-07-24T11:49:29;7.25;;;3.17;;
21927;SDS011;11128;51.096;17.190;2023-07-24T11:54:35;5.40;;;3.10;;
21927;SDS011;11128;51.096;17.190;2023-07-24T11:59:37;6.60;;;3.80;;
21927;SDS011;11128;51.096;17.190;2023-07-24T12:04:40;5.38;;;3.13;;
21927;SDS011;11128;51.096;17.190;2023-07-24T12:09:41;5.82;;;3.25;;
21927;SDS011;11128;51.096;17.190;2023-07-24T12:14:51;6.88;;;3.65;;
21927;SDS011;11128;51.096;17.190;2023-07-24T12:19:53;6.28;;;3.72;;
21927;SDS011;11128;51.096;17.190;2023-07-24T12:24:54;6.25;;;3.63;;
21927;SDS011;11128;51.096;17.190;2023-07-24T12:29:56;5.68;;;3.20;;
21927;SDS011;11128;51.096;17.190;2023-07-24T12:34:57;7.45;;;4.20;;
21927;SDS011;11128;51.096;17.190;2023-07-24T12:39:59;8.25;;;4.55;;
21927;SDS011;11128;51.096;17.190;2023-07-24T12:45:00;9.50;;;4.53;;
21927;SDS011;11128;51.096;17.190;2023-07-24T12:50:04;8.60;;;4.63;;
21927;SDS011;11128;51.096;17.190;2023-07-24T12:55:06;8.60;;;4.38;;
21927;SDS011;11128;51.096;17.190;2023-07-24T13:00:07;8.10;;;3.83;;
21927;SDS011;11128;51.096;17.190;2023-07-24T13:05:09;8.45;;;4.55;;
21927;SDS011;11128;51.096;17.190;2023-07-24T13:10:11;9.07;;;4.47;;
21927;SDS011;11128;51.096;17.190;2023-07-24T13:15:12;9.27;;;4.75;;
21927;SDS011;11128;51.096;17.190;2023-07-24T13:20:14;8.85;;;4.57;;
21927;SDS011;11128;51.096;17.190;2023-07-24T13:25:15;6.63;;;4.05;;
21927;SDS011;11128;51.096;17.190;2023-07-24T13:30:16;7.03;;;4.43;;
21927;SDS011;11128;51.096;17.190;2023-07-24T13:35:20;8.65;;;4.35;;
21927;SDS011;11128;51.096;17.190;2023-07-24T13:40:21;9.00;;;4.65;;
21927;SDS011;11128;51.096;17.190;2023-07-24T13:45:23;9.38;;;4.43;;
21927;SDS011;11128;51.096;17.190;2023-07-24T13:50:24;10.07;;;4.80;;
21927;SDS011;11128;51.096;17.190;2023-07-24T13:55:26;7.85;;;3.90;;
21927;SDS011;11128;51.096;17.190;2023-07-24T14:00:28;8.82;;;4.65;;
21927;SDS011;11128;51.096;17.190;2023-07-24T14:05:29;10.23;;;3.80;;
21927;SDS011;11128;51.096;17.190;2023-07-24T14:10:33;7.53;;;3.97;;
21927;SDS011;11128;51.096;17.190;2023-07-24T14:15:35;7.28;;;3.92;;
21927;SDS011;11128;51.096;17.190;2023-07-24T14:20:36;10.55;;;4.30;;
21927;SDS011;11128;51.096;17.190;2023-07-24T14:25:40;8.00;;;4.05;;
21927;SDS011;11128;51.096;17.190;2023-07-24T14:30:41;10.15;;;4.90;;
21927;SDS011;11128;51.096;17.190;2023-07-24T14:35:43;10.80;;;4.32;;
21927;SDS011;11128;51.096;17.190;2023-07-24T14:40:44;7.20;;;4.05;;
21927;SDS011;11128;51.096;17.190;2023-07-24T14:45:46;6.25;;;4.20;;
21927;SDS011;11128;51.096;17.190;2023-07-24T14:50:48;7.50;;;4.25;;
21927;SDS011;11128;51.096;17.190;2023-07-24T14:55:50;6.97;;;4.05;;
21927;SDS011;11128;51.096;17.190;2023-07-24T15:00:51;10.43;;;4.22;;
21927;SDS011;11128;51.096;17.190;2023-07-24T15:05:53;7.22;;;4.28;;
21927;SDS011;11128;51.096;17.190;2023-07-24T15:10:56;6.63;;;3.70;;
21927;SDS011;11128;51.096;17.190;2023-07-24T15:15:58;7.75;;;4.28;;
21927;SDS011;11128;51.096;17.190;2023-07-24T15:20:59;7.97;;;4.03;;
21927;SDS011;11128;51.096;17.190;2023-07-24T15:26:01;7.50;;;4.10;;
21927;SDS011;11128;51.096;17.190;2023-07-24T15:31:03;7.50;;;4.35;;
21927;SDS011;11128;51.096;17.190;2023-07-24T15:36:05;8.45;;;4.47;;
21927;SDS011;11128;51.096;17.190;2023-07-24T15:41:07;9.35;;;4.10;;
21927;SDS011;11128;51.096;17.190;2023-07-24T15:46:08;8.82;;;4.45;;
21927;SDS011;11128;51.096;17.190;2023-07-24T15:51:10;7.28;;;4.10;;
21927;SDS011;11128;51.096;17.190;2023-07-24T15:56:12;8.77;;;4.15;;
21927;SDS011;11128;51.096;17.190;2023-07-24T16:01:15;9.85;;;4.60;;
21927;SDS011;11128;51.096;17.190;2023-07-24T16:06:16;8.13;;;4.45;;
21927;SDS011;11128;51.096;17.190;2023-07-24T16:11:17;9.93;;;4.28;;
21927;SDS011;11128;51.096;17.190;2023-07-24T16:16:19;9.18;;;4.75;;
21927;SDS011;11128;51.096;17.190;2023-07-24T16:21:20;8.05;;;3.78;;
21927;SDS011;11128;51.096;17.190;2023-07-24T16:26:22;9.25;;;4.68;;
21927;SDS011;11128;51.096;17.190;2023-07-24T16:31:24;9.00;;;4.35;;
21927;SDS011;11128;51.096;17.190;2023-07-24T16:36:25;12.90;;;5.00;;
21927;SDS011;11128;51.096;17.190;2023-07-24T16:41:26;8.35;;;4.05;;
21927;SDS011;11128;51.096;17.190;2023-07-24T16:46:28;9.38;;;4.95;;
21927;SDS011;11128;51.096;17.190;2023-07-24T16:51:29;9.85;;;4.65;;
21927;SDS011;11128;51.096;17.190;2023-07-24T16:56:31;9.00;;;4.35;;
21927;SDS011;11128;51.096;17.190;2023-07-24T17:01:33;7.65;;;4.10;;
21927;SDS011;11128;51.096;17.190;2023-07-24T17:06:34;13.38;;;5.10;;
21927;SDS011;11128;51.096;17.190;2023-07-24T17:11:36;8.38;;;4.60;;
21927;SDS011;11128;51.096;17.190;2023-07-24T17:16:37;8.45;;;4.43;;
21927;SDS011;11128;51.096;17.190;2023-07-24T17:21:39;8.90;;;4.55;;
21927;SDS011;11128;51.096;17.190;2023-07-24T17:26:41;14.57;;;6.07;;
21927;SDS011;11128;51.096;17.190;2023-07-24T17:31:42;10.32;;;5.68;;
21927;SDS011;11128;51.096;17.190;2023-07-24T17:36:44;10.45;;;5.28;;
21927;SDS011;11128;51.096;17.190;2023-07-24T17:41:46;8.82;;;4.63;;
21927;SDS011;11128;51.096;17.190;2023-07-24T17:46:47;13.65;;;4.50;;
21927;SDS011;11128;51.096;17.190;2023-07-24T17:51:48;9.15;;;4.90;;
21927;SDS011;11128;51.096;17.190;2023-07-24T17:56:50;10.88;;;5.03;;
21927;SDS011;11128;51.096;17.190;2023-07-24T18:01:51;8.70;;;4.93;;
21927;SDS011;11128;51.096;17.190;2023-07-24T18:06:52;8.77;;;4.88;;
21927;SDS011;11128;51.096;17.190;2023-07-24T18:11:54;6.57;;;4.18;;
21927;SDS011;11128;51.096;17.190;2023-07-24T18:16:56;8.48;;;4.25;;
21927;SDS011;11128;51.096;17.190;2023-07-24T18:21:57;9.57;;;4.90;;
21927;SDS011;11128;51.096;17.190;2023-07-24T18:27:00;10.18;;;5.00;;
21927;SDS011;11128;51.096;17.190;2023-07-24T18:32:02;9.05;;;4.82;;
21927;SDS011;11128;51.096;17.190;2023-07-24T18:37:05;10.00;;;4.90;;
21927;SDS011;11128;51.096;17.190;2023-07-24T18:42:07;10.48;;;5.10;;
21927;SDS011;11128;51.096;17.190;2023-07-24T18:47:09;9.48;;;4.40;;
21927;SDS011;11128;51.096;17.190;2023-07-24T18:52:11;9.30;;;4.93;;
21927;SDS011;11128;51.096;17.190;2023-07-24T18:57:12;10.73;;;5.30;;
21927;SDS011;11128;51.096;17.190;2023-07-24T19:02:14;10.60;;;5.22;;
21927;SDS011;11128;51.096;17.190;2023-07-24T19:07:16;12.85;;;4.93;;
21927;SDS011;11128;51.096;17.190;2023-07-24T19:12:17;8.73;;;5.00;;
21927;SDS011;11128;51.096;17.190;2023-07-24T19:17:19;10.32;;;4.40;;
21927;SDS011;11128;51.096;17.190;2023-07-24T19:22:20;8.75;;;4.35;;
21927;SDS011;11128;51.096;17.190;2023-07-24T19:27:21;9.77;;;4.32;;
21927;SDS011;11128;51.096;17.190;2023-07-24T19:32:23;7.00;;;4.13;;
21927;SDS011;11128;51.096;17.190;2023-07-24T19:37:25;8.80;;;4.32;;
21927;SDS011;11128;51.096;17.190;2023-07-24T19:42:27;8.40;;;4.55;;
21927;SDS011;11128;51.096;17.190;2023-07-24T19:47:28;7.43;;;4.20;;
21927;SDS011;11128;51.096;17.190;2023-07-24T19:52:29;12.13;;;4.57;;
21927;SDS011;11128;51.096;17.190;2023-07-24T19:57:31;9.88;;;4.35;;
21927;SDS011;11128;51.096;17.190;2023-07-24T20:02:33;10.27;;;4.47;;
21927;SDS011;11128;51.096;17.190;2023-07-24T20:07:34;14.82;;;4.32;;
21927;SDS011;11128;51.096;17.190;2023-07-24T20:12:35;8.15;;;4.53;;
21927;SDS011;11128;51.096;17.190;2023-07-24T20:17:37;9.57;;;4.10;;
21927;SDS011;11128;51.096;17.190;2023-07-24T20:22:38;9.80;;;4.03;;
21927;SDS011;11128;51.096;17.190;2023-07-24T20:27:39;10.73;;;4.60;;
21927;SDS011;11128;51.096;17.190;2023-07-24T20:32:41;7.63;;;4.05;;
21927;SDS011;11128;51.096;17.190;2023-07-24T20:37:43;11.52;;;5.03;;
21927;SDS011;11128;51.096;17.190;2023-07-24T20:42:44;9.27;;;4.55;;
21927;SDS011;11128;51.096;17.190;2023-07-24T20:47:45;11.02;;;4.78;;
21927;SDS011;11128;51.096;17.190;2023-07-24T20:52:47;10.80;;;4.90;;
21927;SDS011;11128;51.096;17.190;2023-07-24T20:57:48;7.85;;;4.30;;
21927;SDS011;11128;51.096;17.190;2023-07-24T21:02:50;8.35;;;4.45;;
21927;SDS011;11128;51.096;17.190;2023-07-24T21:07:51;9.95;;;4.88;;
21927;SDS011;11128;51.096;17.190;2023-07-24T21:12:54;8.63;;;4.80;;
21927;SDS011;11128;51.096;17.190;2023-07-24T21:17:56;9.20;;;4.75;;
21927;SDS011;11128;51.096;17.190;2023-07-24T21:22:57;7.35;;;4.55;;
21927;SDS011;11128;51.096;17.190;2023-07-24T21:27:58;7.32;;;4.10;;
21927;SDS011;11128;51.096;17.190;2023-07-24T21:33:00;9.55;;;4.32;;
21927;SDS011;11128;51.096;17.190;2023-07-24T21:38:01;8.70;;;4.10;;
21927;SDS011;11128;51.096;17.190;2023-07-24T21:43:02;7.47;;;4.43;;
21927;SDS011;11128;51.096;17.190;2023-07-24T21:48:04;7.93;;;4.35;;
21927;SDS011;11128;51.096;17.190;2023-07-24T21:53:07;8.15;;;4.28;;
21927;SDS011;11128;51.096;17.190;2023-07-24T21:58:09;8.15;;;3.92;;
21927;SDS011;11128;51.096;17.190;2023-07-24T22:03:11;6.85;;;3.65;;
21927;SDS011;11128;51.096;17.190;2023-07-24T22:08:13;9.05;;;4.20;;
21927;SDS011;11128;51.096;17.190;2023-07-24T22:13:14;6.10;;;3.10;;
21927;SDS011;11128;51.096;17.190;2023-07-24T22:18:15;6.70;;;3.47;;
21927;SDS011;11128;51.096;17.190;2023-07-24T22:23:17;7.85;;;3.53;;
21927;SDS011;11128;51.096;17.190;2023-07-24T22:28:19;5.88;;;3.35;;
21927;SDS011;11128;51.096;17.190;2023-07-24T22:33:20;5.07;;;3.00;;
21927;SDS011;11128;51.096;17.190;2023-07-24T22:38:22;6.00;;;2.95;;
21927;SDS011;11128;51.096;17.190;2023-07-24T22:43:23;6.30;;;2.95;;
21927;SDS011;11128;51.096;17.190;2023-07-24T22:48:24;5.43;;;2.80;;
21927;SDS011;11128;51.096;17.190;2023-07-24T22:53:26;5.60;;;2.80;;
21927;SDS011;11128;51.096;17.190;2023-07-24T22:58:27;4.97;;;2.97;;
21927;SDS011;11128;51.096;17.190;2023-07-24T23:03:28;5.68;;;2.83;;
21927;SDS011;11128;51.096;17.190;2023-07-24T23:08:30;5.38;;;2.80;;
21927;SDS011;11128;51.096;17.190;2023-07-24T23:13:31;5.80;;;2.50;;
21927;SDS011;11128;51.096;17.190;2023-07-24T23:18:33;5.65;;;2.72;;
21927;SDS011;11128;51.096;17.190;2023-07-24T23:23:34;5.35;;;3.28;;
21927;SDS011;11128;51.096;17.190;2023-07-24T23:28:36;4.78;;;2.65;;
21927;SDS011;11128;51.096;17.190;2023-07-24T23:33:37;10.02;;;3.13;;
21927;SDS011;11128;51.096;17.190;2023-07-24T23:38:39;5.07;;;2.80;;
21927;SDS011;11128;51.096;17.190;2023-07-24T23:43:40;4.10;;;2.75;;
21927;SDS011;11128;51.096;17.190;2023-07-24T23:48:42;5.47;;;3.15;;
21927;SDS011;11128;51.096;17.190;2023-07-24T23:53:44;6.43;;;2.83;;
21927;SDS011;11128;51.096;17.190;2023-07-24T23:58:45;6.47;;;3.33;;
